createdAt,value
2022-09-20T00:01:39.477Z,99553.34
2022-09-20T00:04:08.453Z,99544.66
2022-09-20T00:06:36.843Z,99551.56
2022-09-20T00:09:06.886Z,99541.84
2022-09-20T00:11:39.851Z,99546.09
2022-09-20T00:14:09.544Z,99543.47
2022-09-20T00:16:40.948Z,99541.53
2022-09-20T00:19:10.234Z,99539.69
2022-09-20T00:21:38.698Z,99535.13
2022-09-20T00:24:07.371Z,99536.91
2022-09-20T00:26:38.109Z,99534.28
2022-09-20T00:29:06.626Z,99537.69
2022-09-20T00:31:35.730Z,99548.31
2022-09-20T00:34:21.736Z,99538.63
2022-09-20T00:36:50.427Z,99530.69
2022-09-20T00:39:19.023Z,99531.91
2022-09-20T00:41:48.698Z,99534.75
2022-09-20T00:44:43.093Z,99534.81
2022-09-20T00:47:18.344Z,99535.78
2022-09-20T00:49:47.153Z,99535.22
2022-09-20T00:52:17.352Z,99528.13
2022-09-20T00:54:46.557Z,99529.94
2022-09-20T00:57:16.983Z,99533.38
2022-09-20T00:59:49.264Z,99542.09
2022-09-20T01:02:22.026Z,99542.94
2022-09-20T01:04:51.625Z,99541.19
2022-09-20T01:07:23.424Z,99544.69
2022-09-20T01:09:52.803Z,99531.59
2022-09-20T01:12:27.495Z,99535.81
2022-09-20T01:14:57.937Z,99522.69
2022-09-20T01:17:30.481Z,99528.72
2022-09-20T01:20:10.326Z,99528.75
2022-09-20T01:22:53.970Z,99519.16
2022-09-20T01:25:46.926Z,99516.81
2022-09-20T01:28:17.546Z,99516.09
2022-09-20T01:30:52.164Z,99517.81
2022-09-20T01:33:29.927Z,99521.16
2022-09-20T01:36:02.224Z,99518.53
2022-09-20T01:38:41.238Z,99512.06
2022-09-20T01:41:15.162Z,99516.47
2022-09-20T01:43:52.249Z,99505.78
2022-09-20T01:46:31.476Z,99516.16
2022-09-20T01:49:21.248Z,99510.72
2022-09-20T01:52:30.678Z,99509.88
2022-09-20T01:55:38.334Z,99512.66
2022-09-20T01:58:37.947Z,99508.59
2022-09-20T02:01:32.202Z,99503.69
2022-09-20T02:04:38.182Z,99506.25
2022-09-20T02:07:32.829Z,99507.28
2022-09-20T02:10:36.342Z,99510.78
2022-09-20T02:13:10.037Z,99507.50
2022-09-20T02:16:02.922Z,99512.66
2022-09-20T02:18:45.445Z,99503.91
2022-09-20T02:21:25.743Z,99508.59
2022-09-20T02:24:04.446Z,99515.41
2022-09-20T02:26:44.237Z,99509.41
2022-09-20T02:29:27.072Z,99501.84
2022-09-20T02:32:12.355Z,99505.44
2022-09-20T02:35:01.549Z,99505.34
2022-09-20T02:37:52.900Z,99501.13
2022-09-20T02:40:38.073Z,99504.88
2022-09-20T02:43:17.630Z,99501.31
2022-09-20T02:45:58.253Z,99493.50
2022-09-20T02:48:44.683Z,99498.75
2022-09-20T02:51:22.144Z,99497.19
2022-09-20T02:54:02.975Z,99495.38
2022-09-20T02:56:39.785Z,99492.66
2022-09-20T02:59:18.991Z,99498.91
2022-09-20T03:01:58.012Z,99505.00
2022-09-20T03:04:39.045Z,99502.38
2022-09-20T03:07:20.434Z,99498.81
2022-09-20T03:09:57.254Z,99504.44
2022-09-20T03:12:34.595Z,99512.88
2022-09-20T03:15:17.714Z,99504.94
2022-09-20T03:17:53.854Z,99507.09
2022-09-20T03:20:34.608Z,99507.69
2022-09-20T03:23:16.191Z,99510.59
2022-09-20T03:25:55.267Z,99509.44
2022-09-20T03:28:39.703Z,99503.13
2022-09-20T03:31:19.288Z,99503.25
2022-09-20T03:33:57.652Z,99506.81
2022-09-20T03:36:46.510Z,99507.28
2022-09-20T03:39:48.313Z,99505.47
2022-09-20T03:42:20.671Z,99507.19
2022-09-20T03:45:22.304Z,99495.13
2022-09-20T03:48:36.407Z,99501.59
2022-09-20T03:51:19.040Z,99504.66
2022-09-20T03:54:15.454Z,99506.91
2022-09-20T03:57:07.482Z,99501.75
2022-09-20T03:59:59.604Z,99512.03
2022-09-20T04:02:54.935Z,99507.44
2022-09-20T04:05:33.948Z,99508.31
2022-09-20T04:08:14.109Z,99510.69
2022-09-20T04:10:51.575Z,99508.16
2022-09-20T04:13:35.647Z,99500.84
2022-09-20T04:16:20.721Z,99500.91
2022-09-20T04:18:56.867Z,99495.56
2022-09-20T04:21:33.128Z,99498.28
2022-09-20T04:24:07.134Z,99495.53
2022-09-20T04:26:40.622Z,99498.16
2022-09-20T04:29:26.407Z,99491.69
2022-09-20T04:32:02.704Z,99492.25
2022-09-20T04:34:54.346Z,99495.69
2022-09-20T04:37:29.711Z,99493.88
2022-09-20T04:40:06.294Z,99504.47
2022-09-20T04:43:13.207Z,99504.25
2022-09-20T04:46:14.247Z,99504.16
2022-09-20T04:49:17.873Z,99504.22
2022-09-20T04:52:19.139Z,99505.09
2022-09-20T04:55:21.028Z,99511.09
2022-09-20T04:58:36.194Z,99534.06
2022-09-20T05:01:44.144Z,99563.09
2022-09-20T05:04:54.299Z,99549.91
2022-09-20T05:08:00.529Z,99536.00
2022-09-20T05:11:06.253Z,99541.25
2022-09-20T05:13:46.348Z,99569.81
2022-09-20T05:16:23.431Z,99568.41
2022-09-20T05:19:15.059Z,99566.03
2022-09-20T05:22:05.288Z,99568.91
2022-09-20T05:25:21.660Z,99570.03
2022-09-20T05:27:55.664Z,99558.75
2022-09-20T05:30:35.283Z,99556.75
2022-09-20T05:33:16.587Z,99563.56
2022-09-20T05:35:54.551Z,99555.16
2022-09-20T05:38:33.330Z,99545.03
2022-09-20T05:41:14.064Z,99542.53
2022-09-20T05:43:53.847Z,99553.91
2022-09-20T05:46:34.645Z,99552.63
2022-09-20T05:49:16.244Z,99556.69
2022-09-20T05:52:00.382Z,99549.59
2022-09-20T05:54:58.289Z,99561.13
2022-09-20T05:57:36.505Z,99554.91
2022-09-20T06:00:09.701Z,99564.63
2022-09-20T06:02:54.069Z,99549.59
2022-09-20T06:05:34.863Z,99554.19
2022-09-20T06:08:19.846Z,99552.75
2022-09-20T06:11:05.197Z,99538.34
2022-09-20T06:14:03.919Z,99535.56
2022-09-20T06:16:44.832Z,99536.34
2022-09-20T06:19:24.126Z,99538.25
2022-09-20T06:21:55.427Z,99534.56
2022-09-20T06:24:44.020Z,99538.38
2022-09-20T06:27:19.440Z,99542.19
2022-09-20T06:29:54.466Z,99533.38
2022-09-20T06:32:23.115Z,99540.91
2022-09-20T06:34:53.038Z,99545.19
2022-09-20T06:38:10.241Z,99539.78
2022-09-20T06:41:01.908Z,99547.50
2022-09-20T06:43:32.132Z,99547.72
2022-09-20T06:46:01.176Z,99537.53
2022-09-20T06:48:31.535Z,99554.59
2022-09-20T06:51:01.152Z,99556.78
2022-09-20T06:53:32.661Z,99551.59
2022-09-20T06:56:03.018Z,99563.97
2022-09-20T06:58:32.969Z,99558.44
2022-09-20T07:01:01.451Z,99561.91
2022-09-20T07:03:31.793Z,99566.41
2022-09-20T07:06:00.622Z,99571.38
2022-09-20T07:08:28.977Z,99568.00
2022-09-20T07:10:57.188Z,99571.38
2022-09-20T07:13:26.603Z,99579.81
2022-09-20T07:16:03.376Z,99582.19
2022-09-20T07:18:33.557Z,99583.16
2022-09-20T07:21:02.685Z,99583.38
2022-09-20T07:23:31.338Z,99586.69
2022-09-20T07:26:01.094Z,99591.69
2022-09-20T07:28:31.369Z,99590.16
2022-09-20T07:31:00.114Z,99599.22
2022-09-20T07:33:30.038Z,99589.47
2022-09-20T07:35:58.365Z,99585.47
2022-09-20T07:38:26.935Z,99593.34
2022-09-20T07:40:57.679Z,99590.53
2022-09-20T07:43:26.275Z,99589.00
2022-09-20T07:45:56.056Z,99599.44
2022-09-20T07:48:26.311Z,99589.84
2022-09-20T07:50:57.860Z,99584.03
2022-09-20T07:53:27.223Z,99586.69
2022-09-20T07:56:03.406Z,99584.91
2022-09-20T07:58:34.687Z,99592.16
2022-09-20T08:01:05.244Z,99593.63
2022-09-20T08:03:35.152Z,99600.59
2022-09-20T08:06:07.122Z,99601.78
2022-09-20T08:08:37.302Z,99598.41
2022-09-20T08:11:07.544Z,99592.50
2022-09-20T08:16:27.335Z,99591.22
2022-09-20T08:18:57.828Z,99591.50
2022-09-20T08:21:31.559Z,99581.75
2022-09-20T08:24:01.078Z,99584.81
2022-09-20T08:26:31.538Z,99589.03
2022-09-20T08:29:01.189Z,99593.06
2022-09-20T08:31:34.442Z,99591.84
2022-09-20T08:34:04.806Z,99588.16
2022-09-20T08:36:37.406Z,99584.41
2022-09-20T08:41:59.416Z,99587.56
2022-09-20T08:44:35.074Z,99587.81
2022-09-20T08:47:09.984Z,99584.31
2022-09-20T08:49:39.741Z,99575.19
2022-09-20T08:52:19.016Z,99574.25
2022-09-20T08:54:47.540Z,99582.16
2022-09-20T08:57:18.819Z,99575.47
2022-09-20T08:59:47.555Z,99576.63
2022-09-20T09:02:18.927Z,99573.44
2022-09-20T09:04:49.823Z,99574.16
2022-09-20T09:07:22.786Z,99572.16
2022-09-20T09:09:54.989Z,99576.16
2022-09-20T09:12:25.403Z,99569.84
2022-09-20T09:14:59.372Z,99584.91
2022-09-20T09:17:30.047Z,99576.88
2022-09-20T09:20:00.304Z,99571.44
2022-09-20T09:22:37.229Z,99565.59
2022-09-20T09:25:25.081Z,99568.16
2022-09-20T09:27:57.075Z,99565.41
2022-09-20T09:30:28.681Z,99558.56
2022-09-20T09:33:26.593Z,99553.91
2022-09-20T09:35:59.189Z,99538.91
2022-09-20T09:38:32.206Z,99533.09
2022-09-20T09:41:02.405Z,99535.41
2022-09-20T09:43:33.103Z,99526.84
2022-09-20T09:46:21.390Z,99528.13
2022-09-20T09:49:10.674Z,99537.28
2022-09-20T09:51:43.371Z,99530.59
2022-09-20T09:54:19.911Z,99525.13
2022-09-20T09:57:06.202Z,99524.59
2022-09-20T09:59:47.794Z,99508.88
2022-09-20T10:02:54.640Z,99508.31
2022-09-20T10:05:28.650Z,99521.34
2022-09-20T10:08:12.033Z,99516.31
2022-09-20T10:10:58.072Z,99512.53
2022-09-20T10:13:40.274Z,99516.38
2022-09-20T10:16:19.160Z,99506.81
2022-09-20T10:18:56.804Z,99504.88
2022-09-20T10:21:41.332Z,99509.03
2022-09-20T10:24:26.325Z,99512.66
2022-09-20T10:27:15.847Z,99506.38
2022-09-20T10:30:04.480Z,99533.84
2022-09-20T10:32:50.026Z,99546.75
2022-09-20T10:35:29.515Z,99544.84
2022-09-20T10:38:13.265Z,99547.72
2022-09-20T10:41:13.632Z,99540.94
2022-09-20T10:44:02.805Z,99536.84
2022-09-20T10:46:50.010Z,99548.88
2022-09-20T10:49:35.942Z,99544.41
2022-09-20T10:52:17.986Z,99538.19
2022-09-20T10:55:12.331Z,99534.69
2022-09-20T10:58:14.389Z,99527.44
2022-09-20T11:00:53.816Z,99535.19
2022-09-20T11:03:38.465Z,99528.13
2022-09-20T11:06:18.510Z,99527.75
2022-09-20T11:08:51.792Z,99524.66
2022-09-20T11:11:24.989Z,99522.28
2022-09-20T11:14:01.728Z,99529.06
2022-09-20T11:16:39.654Z,99516.53
2022-09-20T11:19:20.331Z,99517.50
2022-09-20T11:21:54.474Z,99504.38
2022-09-20T11:24:32.849Z,99498.28
2022-09-20T11:27:06.806Z,99501.59
2022-09-20T11:29:42.266Z,99500.56
2022-09-20T11:32:18.015Z,99492.09
2022-09-20T11:34:53.636Z,99498.63
2022-09-20T11:37:26.299Z,99492.69
2022-09-20T11:39:56.581Z,99496.50
2022-09-20T11:42:29.767Z,99482.81
2022-09-20T11:44:58.736Z,99486.22
2022-09-20T11:47:53.806Z,99476.13
2022-09-20T11:51:07.754Z,99469.94
2022-09-20T11:53:53.588Z,99465.19
2022-09-20T11:56:26.285Z,99458.31
2022-09-20T11:58:59.026Z,99466.78
2022-09-20T12:01:32.343Z,99466.75
2022-09-20T12:04:31.233Z,99478.03
2022-09-20T12:07:07.461Z,99470.16
2022-09-20T12:09:41.002Z,99480.88
2022-09-20T12:12:20.657Z,99482.84
2022-09-20T12:14:56.720Z,99486.91
2022-09-20T12:18:06.779Z,99473.41
2022-09-20T12:21:04.745Z,99478.31
2022-09-20T12:24:02.951Z,99470.28
2022-09-20T12:26:44.066Z,99473.34
2022-09-20T12:29:53.080Z,99469.88
2022-09-20T12:32:55.030Z,99464.47
2022-09-20T12:36:26.704Z,99454.78
2022-09-20T12:39:01.242Z,99455.16
2022-09-20T12:41:45.602Z,99448.34
2022-09-20T12:44:32.415Z,99457.06
2022-09-20T12:47:03.268Z,99448.53
2022-09-20T12:50:08.563Z,99456.78
2022-09-20T12:52:53.736Z,99462.41
2022-09-20T12:55:49.752Z,99457.47
2022-09-20T12:58:28.634Z,99453.84
2022-09-20T13:01:30.564Z,99453.00
2022-09-20T13:04:36.676Z,99462.88
2022-09-20T13:07:34.299Z,99454.56
2022-09-20T13:10:08.010Z,99451.13
2022-09-20T13:12:41.660Z,99438.41
2022-09-20T13:15:19.638Z,99430.56
2022-09-20T13:17:52.148Z,99436.03
2022-09-20T13:20:25.274Z,99430.34
2022-09-20T13:22:58.291Z,99421.69
2022-09-20T13:25:29.660Z,99423.91
2022-09-20T13:28:08.374Z,99425.38
2022-09-20T13:30:37.751Z,99422.94
2022-09-20T13:33:23.097Z,99434.72
2022-09-20T13:35:57.205Z,99438.69
2022-09-20T13:38:29.974Z,99432.25
2022-09-20T13:41:07.295Z,99425.69
2022-09-20T13:43:41.800Z,99417.81
2022-09-20T13:46:12.333Z,99420.84
2022-09-20T13:48:41.388Z,99417.84
2022-09-20T13:51:19.184Z,99417.94
2022-09-20T13:53:48.393Z,99418.28
2022-09-20T13:56:21.818Z,99420.94
2022-09-20T13:58:52.810Z,99415.94
2022-09-20T14:01:29.255Z,99416.66
2022-09-20T14:04:06.334Z,99415.72
2022-09-20T14:06:35.989Z,99416.59
2022-09-20T14:09:11.354Z,99410.22
2022-09-20T14:11:41.015Z,99422.47
2022-09-20T14:14:19.881Z,99422.66
2022-09-20T14:16:51.527Z,99448.47
2022-09-20T14:19:22.348Z,99448.34
2022-09-20T14:21:51.875Z,99458.66
2022-09-20T14:24:32.414Z,99461.38
2022-09-20T14:27:04.040Z,99465.44
2022-09-20T14:29:41.155Z,99458.94
2022-09-20T14:32:30.572Z,99470.59
2022-09-20T14:35:06.094Z,99470.69
2022-09-20T14:37:37.901Z,99475.47
2022-09-20T14:40:18.794Z,99473.50
2022-09-20T14:42:49.452Z,99475.06
2022-09-20T14:45:25.670Z,99480.19
2022-09-20T14:47:57.811Z,99474.97
2022-09-20T14:50:29.727Z,99474.22
2022-09-20T14:53:23.776Z,99473.22
2022-09-20T14:56:10.323Z,99475.13
2022-09-20T14:59:22.011Z,99469.28
2022-09-20T15:02:02.998Z,99472.50
2022-09-20T15:04:33.030Z,99473.63
2022-09-20T15:07:03.715Z,99472.72
2022-09-20T15:09:32.131Z,99473.03
2022-09-20T15:12:05.294Z,99465.59
2022-09-20T15:14:37.718Z,99474.22
2022-09-20T15:17:10.731Z,99475.31
2022-09-20T15:19:39.334Z,99468.66
2022-09-20T15:22:09.179Z,99469.25
2022-09-20T15:24:37.768Z,99461.31
2022-09-20T15:27:06.596Z,99453.84
2022-09-20T15:29:34.992Z,99464.13
2022-09-20T15:32:05.829Z,99466.56
2022-09-20T15:34:35.920Z,99471.44
2022-09-20T15:37:04.683Z,99469.44
2022-09-20T15:39:33.115Z,99467.66
2022-09-20T15:42:02.565Z,99469.59
2022-09-20T15:44:32.657Z,99467.66
2022-09-20T15:47:01.677Z,99476.66
2022-09-20T15:49:31.115Z,99486.53
2022-09-20T15:52:00.974Z,99473.75
2022-09-20T15:54:29.389Z,99480.59
2022-09-20T15:56:58.453Z,99472.50
2022-09-20T15:59:28.557Z,99476.78
2022-09-20T16:01:56.966Z,99478.78
2022-09-20T16:04:27.263Z,99477.13
2022-09-20T16:06:55.683Z,99476.31
2022-09-20T16:09:26.664Z,99472.53
2022-09-20T16:11:58.826Z,99476.03
2022-09-20T16:14:27.484Z,99486.06
2022-09-20T16:16:58.642Z,99477.00
2022-09-20T16:19:26.291Z,99484.91
2022-09-20T16:21:58.825Z,99474.59
2022-09-20T16:24:31.564Z,99476.81
2022-09-20T16:27:01.871Z,99481.16
2022-09-20T16:29:31.024Z,99487.16
2022-09-20T16:32:00.846Z,99485.22
2022-09-20T16:34:31.498Z,99486.72
2022-09-20T16:37:03.621Z,99490.84
2022-09-20T16:39:34.763Z,99495.16
2022-09-20T16:42:05.147Z,99495.34
2022-09-20T16:44:35.285Z,99497.94
2022-09-20T16:47:08.882Z,99497.44
2022-09-20T16:49:37.964Z,99496.63
2022-09-20T16:52:07.303Z,99497.91
2022-09-20T16:54:37.163Z,99495.22
2022-09-20T16:57:06.216Z,99501.72
2022-09-20T16:59:34.704Z,99501.13
2022-09-20T17:02:03.089Z,99504.75
2022-09-20T17:04:31.787Z,99504.81
2022-09-20T17:07:01.788Z,99507.72
2022-09-20T17:09:30.171Z,99515.44
2022-09-20T17:12:01.297Z,99505.81
2022-09-20T17:14:31.239Z,99507.91
2022-09-20T17:16:59.805Z,99519.53
2022-09-20T17:19:28.820Z,99507.97
2022-09-20T17:21:57.412Z,99520.88
2022-09-20T17:24:26.362Z,99516.38
2022-09-20T17:26:54.722Z,99516.16
2022-09-20T17:29:24.541Z,99515.31
2022-09-20T17:31:56.890Z,99518.88
2022-09-20T17:34:29.534Z,99521.97
2022-09-20T17:36:58.109Z,99529.97
2022-09-20T17:39:26.592Z,99526.19
2022-09-20T17:41:55.314Z,99527.84
2022-09-20T17:44:25.579Z,99529.16
2022-09-20T17:46:54.339Z,99539.22
2022-09-20T17:49:24.462Z,99532.13
2022-09-20T17:51:55.145Z,99543.81
2022-09-20T17:54:24.883Z,99537.38
2022-09-20T17:56:55.968Z,99540.00
2022-09-20T17:59:26.149Z,99527.97
2022-09-20T18:01:55.676Z,99539.69
2022-09-20T18:04:25.200Z,99531.28
2022-09-20T18:06:55.095Z,99532.75
2022-09-20T18:09:25.807Z,99550.97
2022-09-20T18:11:55.988Z,99558.28
2022-09-20T18:14:27.951Z,99560.34
2022-09-20T18:16:59.200Z,99555.63
2022-09-20T18:19:33.004Z,99556.84
2022-09-20T18:22:02.353Z,99562.50
2022-09-20T18:24:31.657Z,99564.50
2022-09-20T18:27:00.911Z,99569.31
2022-09-20T18:29:36.532Z,99565.69
2022-09-20T18:32:08.710Z,99570.63
2022-09-20T18:34:37.181Z,99577.34
2022-09-20T18:37:09.102Z,99580.06
2022-09-20T18:39:41.310Z,99587.22
2022-09-20T18:42:10.376Z,99590.50
2022-09-20T18:44:43.690Z,99594.53
2022-09-20T18:47:12.271Z,99584.81
2022-09-20T18:49:40.652Z,99590.84
2022-09-20T18:52:10.770Z,99586.88
2022-09-20T18:54:40.870Z,99585.19
2022-09-20T18:57:11.552Z,99589.94
2022-09-20T18:59:53.425Z,99590.19
2022-09-20T19:02:51.955Z,99591.94
2022-09-20T19:05:26.993Z,99586.44
2022-09-20T19:08:08.765Z,99588.50
2022-09-20T19:10:44.635Z,99587.44
2022-09-20T19:13:26.817Z,99587.72
2022-09-20T19:16:18.313Z,99588.59
2022-09-20T19:19:10.552Z,99587.00
2022-09-20T19:21:49.715Z,99583.81
2022-09-20T19:24:32.625Z,99586.91
2022-09-20T19:27:01.492Z,99578.97
2022-09-20T19:29:31.208Z,99585.53
2022-09-20T19:32:02.088Z,99587.53
2022-09-20T19:34:33.148Z,99585.75
2022-09-20T19:37:18.485Z,99583.41
2022-09-20T19:40:04.345Z,99588.81
2022-09-20T19:42:47.625Z,99589.22
2022-09-20T19:45:29.061Z,99587.31
2022-09-20T19:48:07.692Z,99579.56
2022-09-20T19:50:45.441Z,99591.22
2022-09-20T19:53:14.898Z,99583.97
2022-09-20T19:55:48.035Z,99584.44
2022-09-20T19:58:17.077Z,99586.19
2022-09-20T20:00:47.083Z,99597.75
2022-09-20T20:03:17.958Z,99595.22
2022-09-20T20:05:54.070Z,99591.56
2022-09-20T20:08:32.935Z,99586.75
2022-09-20T20:11:09.255Z,99591.06
2022-09-20T20:14:04.094Z,99587.47
2022-09-20T20:16:41.210Z,99590.84
2022-09-20T20:19:27.589Z,99589.81
2022-09-20T20:21:59.614Z,99601.34
2022-09-20T20:24:37.019Z,99602.91
2022-09-20T20:27:05.817Z,99609.25
2022-09-20T20:29:34.204Z,99600.59
2022-09-20T20:32:02.898Z,99604.06
2022-09-20T20:34:33.283Z,99609.25
2022-09-20T20:37:01.606Z,99611.97
2022-09-20T20:39:32.056Z,99617.41
2022-09-20T20:42:02.772Z,99617.34
2022-09-20T20:44:32.021Z,99615.63
2022-09-20T20:47:00.352Z,99614.91
2022-09-20T20:49:28.936Z,99612.34
2022-09-20T20:51:59.723Z,99615.00
2022-09-20T20:54:28.080Z,99614.94
2022-09-20T20:56:56.617Z,99622.03
2022-09-20T20:59:25.320Z,99621.97
2022-09-20T21:01:53.775Z,99619.38
2022-09-20T21:04:23.233Z,99621.31
2022-09-20T21:06:51.584Z,99628.34
2022-09-20T21:09:21.355Z,99622.72
2022-09-20T21:11:49.928Z,99620.22
2022-09-20T21:14:18.316Z,99623.53
2022-09-20T21:16:46.735Z,99622.81
2022-09-20T21:19:16.762Z,99621.81
2022-09-20T21:21:47.207Z,99621.00
2022-09-20T21:24:17.422Z,99615.56
2022-09-20T21:26:48.563Z,99620.84
2022-09-20T21:29:17.803Z,99621.09
2022-09-20T21:31:47.628Z,99619.25
2022-09-20T21:34:17.914Z,99622.09
2022-09-20T21:36:46.462Z,99621.88
2022-09-20T21:39:15.106Z,99630.50
2022-09-20T21:41:43.475Z,99625.19
2022-09-20T21:44:13.240Z,99626.91
2022-09-20T21:46:43.093Z,99627.84
2022-09-20T21:49:13.153Z,99623.34
2022-09-20T21:51:43.995Z,99624.44
2022-09-20T21:54:12.794Z,99618.34
2022-09-20T21:56:41.939Z,99627.09
2022-09-20T21:59:10.663Z,99621.72
2022-09-20T22:01:41.284Z,99619.06
2022-09-20T22:04:11.732Z,99626.97
2022-09-20T22:06:42.404Z,99617.38
2022-09-20T22:09:12.326Z,99622.72
2022-09-20T22:11:42.823Z,99624.47
2022-09-20T22:14:13.331Z,99627.59
2022-09-20T22:16:45.066Z,99623.03
2022-09-20T22:19:15.206Z,99632.78
2022-09-20T22:21:45.502Z,99637.25
2022-09-20T22:24:15.316Z,99629.41
2022-09-20T22:26:46.011Z,99629.50
2022-09-20T22:29:15.333Z,99636.66
2022-09-20T22:31:46.665Z,99627.06
2022-09-20T22:34:17.556Z,99623.78
2022-09-20T22:36:46.256Z,99627.28
2022-09-20T22:39:15.320Z,99629.88
2022-09-20T22:41:44.552Z,99634.22
2022-09-20T22:44:12.943Z,99645.50
2022-09-20T22:46:41.580Z,99647.13
2022-09-20T22:49:11.707Z,99648.69
2022-09-20T22:51:40.213Z,99640.03
2022-09-20T22:54:10.360Z,99635.84
2022-09-20T22:56:41.334Z,99635.59
2022-09-20T22:59:11.751Z,99632.88
2022-09-20T23:01:42.584Z,99627.59
2022-09-20T23:04:13.909Z,99632.97
2022-09-20T23:06:44.756Z,99625.03
2022-09-20T23:09:15.915Z,99625.75
2022-09-20T23:11:45.536Z,99632.97
2022-09-20T23:14:17.857Z,99629.31
2022-09-20T23:16:47.522Z,99635.50
2022-09-20T23:19:17.885Z,99632.66
2022-09-20T23:21:46.568Z,99626.56
2022-09-20T23:24:16.551Z,99624.66
2022-09-20T23:26:45.414Z,99621.47
2022-09-20T23:29:15.402Z,99617.94
2022-09-20T23:31:46.693Z,99625.28
2022-09-20T23:34:18.451Z,99612.91
2022-09-20T23:36:47.911Z,99614.63
2022-09-20T23:39:16.901Z,99608.47
2022-09-20T23:41:50.705Z,99621.44
2022-09-20T23:44:19.946Z,99628.06
2022-09-20T23:46:48.222Z,99626.75
2022-09-20T23:49:17.857Z,99621.47
2022-09-20T23:51:46.833Z,99615.25
2022-09-20T23:54:15.066Z,99622.09
2022-09-20T23:56:43.812Z,99615.81
2022-09-20T23:59:12.409Z,99614.19
